Mauldin, SC (29662)

7:25 AM EST on December 22, 2014 (GMT -0500)
Heritage Lakes | Change Station
CLOSE
Current Station
Personal Weather Station
Location: Simpsonville, SC
Elevation: 910 ft
Nearby Weather Stations

Elev 910 ft 34.81 °N, 82.26 °W | Updated 48 seconds ago

Overcast
Overcast
41.1 °F
Feels Like 39 °F
N
4.0
Wind Variable Wind from ENE
Gusts 10.0 mph

Today
High -- | Low -- °F
--% Chance of Precip.
Yesterday
High -- | Low -- °F
Precip. -- in
7:33 AM 5:22 PM
New Moon, 0% visible
Pressure 30.08 in
Visibility 3.0 miles
Clouds Overcast 500 ft
Windchill 39 °F
Dew Point 40 °F
Humidity 95%
Rainfall 0.02 in
Snow Depth Not available.
UV 0 out of 12
Pollen 1.00 out of 12
Air Quality Not available.
Flu Activity Not available.
METAR KGYH 221147Z 06013KT 3SM BR OVC005 04/04 A3008

More Conditions Fewer Conditions

Pressure 30.08 in
Visibility 3.0 miles
Clouds Overcast 500 ft
Windchill 39 °F
Dew Point 40 °F
Humidity 95%
Rainfall 0.02 in
Snow Depth Not available.
UV 0 out of 12
Pollen 1.00 out of 12
Air Quality Not available.
Flu Activity Not available.
METAR KGYH 221147Z 06013KT 3SM BR OVC005 04/04 A3008

More Conditions Fewer Conditions

10-Day Weather Forecast

Almanac

Astronomy

Dec. 22, 2014 Rise Set
Actual Time
Civil Twilight
Nautical Twilight
Astronomical Twilight
Moon
Length of Visible Light
Length of Day
Tomorrow will be .
, % of the Moon is Illuminated

Today's Extremes

State Highs State Lows

Community

WunderPhotos

Upload Photos

1,779,595 photos uploaded!

WunderBlogs® & News

Nearby

Air Quality

  Air Quality AQ Index Pollutant
Not available.

Snow Depth

Station Depth Elevation

Earthquake Activity

City Distance Mag. Time & Date
Minimum magnitude displayed is 2.5.

Coastal Water Temperatures

Place Temperature

Nearby Weather Stations